Terminal Aerodrome Forecast
Issued by NWS Sioux Falls, SD

Home | Current Version | Previous Version | Text Only | Print | Product List | Glossary On
Versions: 1 2 3 4 5 6 7 8 9 10 11 12 13 14 15
000
FTUS43 KFSD 171126
TAFHON
TAF
KHON 171126Z 1712/1812 31006KT P6SM SKC
     FM171700 27004KT P6SM FEW250
     FM172000 21005KT P6SM SCT100
     FM172300 16007KT P6SM BKN080=

USA.gov is the U.S. government's official web portal to all federal, state and local government web resources and services.